sensor_id;sensor_type;location;lat;lon;timestamp;pressure;altitude;pressure_sealevel;temperature;humidity
51245;BME280;37840;47.562;18.738;2023-02-14T00:00:19;101461.75;;;3.14;76.87
51245;BME280;37840;47.562;18.738;2023-02-14T00:02:47;101460.03;;;3.11;76.46
51245;BME280;37840;47.562;18.738;2023-02-14T00:05:14;101455.72;;;3.07;76.23
51245;BME280;37840;47.562;18.738;2023-02-14T00:07:40;101462.81;;;3.02;76.04
51245;BME280;37840;47.562;18.738;2023-02-14T00:10:07;101465.53;;;2.93;75.86
51245;BME280;37840;47.562;18.738;2023-02-14T00:12:33;101466.47;;;2.87;75.61
51245;BME280;37840;47.562;18.738;2023-02-14T00:14:59;101457.81;;;2.77;75.09
51245;BME280;37840;47.562;18.738;2023-02-14T00:17:43;101458.78;;;2.70;74.85
51245;BME280;37840;47.562;18.738;2023-02-14T00:20:09;101466.75;;;2.62;74.89
51245;BME280;37840;47.562;18.738;2023-02-14T00:22:35;101479.94;;;2.58;75.37
51245;BME280;37840;47.562;18.738;2023-02-14T00:25:01;101479.03;;;2.59;75.32
51245;BME280;37840;47.562;18.738;2023-02-14T00:27:27;101474.72;;;2.53;75.30
51245;BME280;37840;47.562;18.738;2023-02-14T00:29:53;101469.47;;;2.52;75.07
51245;BME280;37840;47.562;18.738;2023-02-14T00:32:21;101461.66;;;2.47;75.93
51245;BME280;37840;47.562;18.738;2023-02-14T00:34:46;101462.47;;;2.51;76.68
51245;BME280;37840;47.562;18.738;2023-02-14T00:37:12;101466.81;;;2.56;77.21
51245;BME280;37840;47.562;18.738;2023-02-14T00:39:38;101465.88;;;2.60;77.78
51245;BME280;37840;47.562;18.738;2023-02-14T00:42:04;101468.47;;;2.65;77.65
51245;BME280;37840;47.562;18.738;2023-02-14T00:44:30;101461.50;;;2.62;77.43
51245;BME280;37840;47.562;18.738;2023-02-14T00:46:56;101450.97;;;2.64;77.88
51245;BME280;37840;47.562;18.738;2023-02-14T00:49:22;101455.31;;;2.65;78.52
51245;BME280;37840;47.562;18.738;2023-02-14T00:51:48;101457.94;;;2.68;78.77
51245;BME280;37840;47.562;18.738;2023-02-14T00:54:14;101472.78;;;2.71;78.79
51245;BME280;37840;47.562;18.738;2023-02-14T00:56:40;101465.75;;;2.73;78.66
51245;BME280;37840;47.562;18.738;2023-02-14T00:59:06;101463.13;;;2.73;78.62
51245;BME280;37840;47.562;18.738;2023-02-14T01:01:32;101463.13;;;2.73;78.79
51245;BME280;37840;47.562;18.738;2023-02-14T01:03:58;101457.88;;;2.74;nan
51245;BME280;37840;47.562;18.738;2023-02-14T01:06:24;101461.38;;;2.72;78.64
51245;BME280;37840;47.562;18.738;2023-02-14T01:08:50;101472.78;;;2.72;78.90
51245;BME280;37840;47.562;18.738;2023-02-14T01:11:19;101464.91;;;2.71;78.96
51245;BME280;37840;47.562;18.738;2023-02-14T01:13:46;101462.28;;;2.69;78.93
51245;BME280;37840;47.562;18.738;2023-02-14T01:16:16;101459.72;;;2.66;79.20
51245;BME280;37840;47.562;18.738;2023-02-14T01:18:42;101454.41;;;2.69;79.18
51245;BME280;37840;47.562;18.738;2023-02-14T01:21:21;101448.28;;;2.69;79.26
51245;BME280;37840;47.562;18.738;2023-02-14T01:23:49;101434.28;;;2.68;79.11
51245;BME280;37840;47.562;18.738;2023-02-14T01:26:16;101434.31;;;2.63;79.25
51245;BME280;37840;47.562;18.738;2023-02-14T01:28:43;101429.97;;;2.62;79.33
51245;BME280;37840;47.562;18.738;2023-02-14T01:31:13;101441.38;;;2.60;79.59
51245;BME280;37840;47.562;18.738;2023-02-14T01:33:40;101436.16;;;2.58;79.43
51245;BME280;37840;47.562;18.738;2023-02-14T01:36:06;101434.44;;;2.54;78.93
51245;BME280;37840;47.562;18.738;2023-02-14T01:38:32;101429.16;;;2.57;78.93
51245;BME280;37840;47.562;18.738;2023-02-14T01:40:58;101419.47;;;2.62;78.98
51245;BME280;37840;47.562;18.738;2023-02-14T01:43:24;101422.09;;;2.61;79.24
51245;BME280;37840;47.562;18.738;2023-02-14T01:45:50;101432.66;;;2.58;79.05
51245;BME280;37840;47.562;18.738;2023-02-14T01:48:18;101426.50;;;2.59;78.91
51245;BME280;37840;47.562;18.738;2023-02-14T01:50:48;101419.53;;;2.56;78.76
51245;BME280;37840;47.562;18.738;2023-02-14T01:53:26;101423.06;;;2.55;78.66
51245;BME280;37840;47.562;18.738;2023-02-14T01:56:00;101423.94;;;2.54;78.69
51245;BME280;37840;47.562;18.738;2023-02-14T01:58:30;101419.59;;;2.53;78.64
51245;BME280;37840;47.562;18.738;2023-02-14T02:01:01;101425.75;;;2.49;78.66
51245;BME280;37840;47.562;18.738;2023-02-14T02:03:33;101417.03;;;2.45;78.71
51245;BME280;37840;47.562;18.738;2023-02-14T02:06:14;101423.13;;;2.46;78.56
51245;BME280;37840;47.562;18.738;2023-02-14T02:08:51;101429.34;;;2.40;78.50
51245;BME280;37840;47.562;18.738;2023-02-14T02:11:22;101422.31;;;2.42;78.14
51245;BME280;37840;47.562;18.738;2023-02-14T02:13:47;101421.47;;;2.37;77.94
51245;BME280;37840;47.562;18.738;2023-02-14T02:16:38;101419.81;;;2.29;77.40
51245;BME280;37840;47.562;18.738;2023-02-14T02:22:26;101412.97;;;2.17;77.99
51245;BME280;37840;47.562;18.738;2023-02-14T02:34:34;101401.62;;;2.12;78.45
51245;BME280;37840;47.562;18.738;2023-02-14T02:48:55;101409.72;;;1.87;78.45
51245;BME280;37840;47.562;18.738;2023-02-14T02:51:44;101413.22;;;1.88;78.77
51245;BME280;37840;47.562;18.738;2023-02-14T02:54:36;101416.69;;;1.87;78.68
51245;BME280;37840;47.562;18.738;2023-02-14T02:57:13;101410.63;;;1.81;78.58
51245;BME280;37840;47.562;18.738;2023-02-14T02:59:45;101401.91;;;1.78;78.57
51245;BME280;37840;47.562;18.738;2023-02-14T03:02:15;101402.84;;;1.72;78.85
51245;BME280;37840;47.562;18.738;2023-02-14T03:04:45;101398.47;;;1.73;79.63
51245;BME280;37840;47.562;18.738;2023-02-14T03:07:19;101400.22;;;1.72;80.01
51245;BME280;37840;47.562;18.738;2023-02-14T03:10:24;101405.47;;;1.72;79.88
51245;BME280;37840;47.562;18.738;2023-02-14T03:22:04;101389.69;;;1.74;78.87
51245;BME280;37840;47.562;18.738;2023-02-14T03:24:46;101384.50;;;1.68;78.61
51245;BME280;37840;47.562;18.738;2023-02-14T03:27:29;101391.59;;;1.59;78.13
51245;BME280;37840;47.562;18.738;2023-02-14T03:30:10;101401.16;;;1.63;78.43
51245;BME280;37840;47.562;18.738;2023-02-14T03:37:48;101399.50;;;1.50;78.67
51245;BME280;37840;47.562;18.738;2023-02-14T03:40:29;101395.16;;;1.49;78.83
51245;BME280;37840;47.562;18.738;2023-02-14T03:43:33;101386.50;;;1.35;78.76
51245;BME280;37840;47.562;18.738;2023-02-14T03:48:49;101403.16;;;1.23;79.37
51245;BME280;37840;47.562;18.738;2023-02-14T03:51:19;101404.06;;;1.20;79.21
51245;BME280;37840;47.562;18.738;2023-02-14T03:53:49;101405.81;;;1.21;79.14
51245;BME280;37840;47.562;18.738;2023-02-14T03:58:57;101402.31;;;1.22;78.87
51245;BME280;37840;47.562;18.738;2023-02-14T04:01:33;101403.19;;;1.21;79.38
51245;BME280;37840;47.562;18.738;2023-02-14T04:04:02;101399.69;;;1.26;80.22
51245;BME280;37840;47.562;18.738;2023-02-14T04:06:29;101399.66;;;1.29;80.08
51245;BME280;37840;47.562;18.738;2023-02-14T04:11:39;101405.78;;;1.23;80.02
51245;BME280;37840;47.562;18.738;2023-02-14T04:14:06;101397.94;;;1.23;79.77
51245;BME280;37840;47.562;18.738;2023-02-14T04:16:32;101394.47;;;1.18;79.51
51245;BME280;37840;47.562;18.738;2023-02-14T04:19:18;101382.25;;;1.20;79.72
51245;BME280;37840;47.562;18.738;2023-02-14T04:21:51;101385.72;;;1.20;79.83
51245;BME280;37840;47.562;18.738;2023-02-14T04:24:17;101384.84;;;1.21;79.65
51245;BME280;37840;47.562;18.738;2023-02-14T04:26:44;101390.97;;;1.19;79.45
51245;BME280;37840;47.562;18.738;2023-02-14T04:29:21;101385.75;;;1.16;79.43
51245;BME280;37840;47.562;18.738;2023-02-14T04:31:48;101391.88;;;1.15;79.56
51245;BME280;37840;47.562;18.738;2023-02-14T04:34:13;101391.91;;;1.09;79.74
51245;BME280;37840;47.562;18.738;2023-02-14T04:36:39;101383.19;;;1.04;80.41
51245;BME280;37840;47.562;18.738;2023-02-14T04:39:05;101382.34;;;1.01;80.51
51245;BME280;37840;47.562;18.738;2023-02-14T04:41:31;101391.03;;;1.10;80.34
51245;BME280;37840;47.562;18.738;2023-02-14T04:43:57;101385.78;;;1.13;80.16
51245;BME280;37840;47.562;18.738;2023-02-14T04:46:23;101395.41;;;1.11;80.18
51245;BME280;37840;47.562;18.738;2023-02-14T04:48:49;101391.88;;;1.10;80.10
51245;BME280;37840;47.562;18.738;2023-02-14T04:51:15;101393.66;;;1.10;80.10
51245;BME280;37840;47.562;18.738;2023-02-14T04:53:41;101395.41;;;1.06;80.26
51245;BME280;37840;47.562;18.738;2023-02-14T04:56:07;101389.34;;;1.02;79.93
51245;BME280;37840;47.562;18.738;2023-02-14T04:58:38;101391.97;;;0.96;79.68
51245;BME280;37840;47.562;18.738;2023-02-14T05:01:04;101386.75;;;0.98;79.46
51245;BME280;37840;47.562;18.738;2023-02-14T05:03:30;101382.41;;;0.92;79.35
51245;BME280;37840;47.562;18.738;2023-02-14T05:05:56;101383.31;;;0.84;80.17
51245;BME280;37840;47.562;18.738;2023-02-14T05:08:22;101385.94;;;0.85;80.44
51245;BME280;37840;47.562;18.738;2023-02-14T05:10:47;101383.28;;;0.88;80.94
51245;BME280;37840;47.562;18.738;2023-02-14T05:13:13;101380.59;;;0.97;81.29
51245;BME280;37840;47.562;18.738;2023-02-14T05:15:40;101384.09;;;0.99;81.84
51245;BME280;37840;47.562;18.738;2023-02-14T05:18:05;101384.09;;;1.02;81.87
51245;BME280;37840;47.562;18.738;2023-02-14T05:20:31;101386.72;;;1.02;81.87
51245;BME280;37840;47.562;18.738;2023-02-14T05:22:57;101387.59;;;1.00;81.75
51245;BME280;37840;47.562;18.738;2023-02-14T05:25:28;101378.00;;;0.99;81.56
51245;BME280;37840;47.562;18.738;2023-02-14T05:27:55;101385.00;;;1.00;81.07
51245;BME280;37840;47.562;18.738;2023-02-14T05:30:21;101384.97;;;0.98;80.36
51245;BME280;37840;47.562;18.738;2023-02-14T05:32:51;101386.75;;;0.89;79.85
51245;BME280;37840;47.562;18.738;2023-02-14T05:35:17;101388.53;;;0.88;80.03
51245;BME280;37840;47.562;18.738;2023-02-14T05:37:43;101390.25;;;0.91;80.20
51245;BME280;37840;47.562;18.738;2023-02-14T05:40:09;101392.00;;;0.90;80.52
51245;BME280;37840;47.562;18.738;2023-02-14T05:42:38;101393.75;;;0.88;80.34
51245;BME280;37840;47.562;18.738;2023-02-14T05:45:05;101391.16;;;0.90;80.16
51245;BME280;37840;47.562;18.738;2023-02-14T05:47:31;101393.72;;;0.94;79.89
51245;BME280;37840;47.562;18.738;2023-02-14T05:49:57;101392.00;;;0.90;80.09
51245;BME280;37840;47.562;18.738;2023-02-14T05:52:23;101394.66;;;0.87;80.93
51245;BME280;37840;47.562;18.738;2023-02-14T05:54:49;101400.72;;;0.91;81.43
51245;BME280;37840;47.562;18.738;2023-02-14T05:57:15;101401.59;;;0.91;81.37
51245;BME280;37840;47.562;18.738;2023-02-14T05:59:41;101398.97;;;0.91;81.27
51245;BME280;37840;47.562;18.738;2023-02-14T06:02:07;101401.59;;;0.94;81.11
51245;BME280;37840;47.562;18.738;2023-02-14T06:04:33;101403.31;;;0.97;80.88
51245;BME280;37840;47.562;18.738;2023-02-14T06:06:58;101395.44;;;1.01;81.10
51245;BME280;37840;47.562;18.738;2023-02-14T06:09:24;101400.63;;;1.09;81.13
51245;BME280;37840;47.562;18.738;2023-02-14T06:11:50;101397.13;;;1.15;80.91
51245;BME280;37840;47.562;18.738;2023-02-14T06:14:16;101393.50;;;1.31;81.04
51245;BME280;37840;47.562;18.738;2023-02-14T06:16:42;101400.38;;;1.52;81.24
51245;BME280;37840;47.562;18.738;2023-02-14T06:19:08;101403.72;;;1.73;81.13
51245;BME280;37840;47.562;18.738;2023-02-14T06:21:34;101405.25;;;1.97;79.56
51245;BME280;37840;47.562;18.738;2023-02-14T06:24:00;101405.75;;;2.36;77.25
51245;BME280;37840;47.562;18.738;2023-02-14T06:26:27;101412.25;;;2.78;75.48
51245;BME280;37840;47.562;18.738;2023-02-14T06:28:54;101409.66;;;3.43;72.67
51245;BME280;37840;47.562;18.738;2023-02-14T06:31:21;101411.19;;;4.11;70.18
51245;BME280;37840;47.562;18.738;2023-02-14T06:33:46;101408.75;;;4.92;67.88
51245;BME280;37840;47.562;18.738;2023-02-14T06:36:13;101407.88;;;5.69;65.50
51245;BME280;37840;47.562;18.738;2023-02-14T07:28:18;101424.25;;;16.81;37.47
51245;BME280;37840;47.562;18.738;2023-02-14T07:30:44;101420.88;;;17.16;36.82
51245;BME280;37840;47.562;18.738;2023-02-14T07:33:10;101424.13;;;17.58;36.15
51245;BME280;37840;47.562;18.738;2023-02-14T07:35:36;101425.75;;;17.84;35.49
51245;BME280;37840;47.562;18.738;2023-02-14T07:38:02;101419.19;;;18.35;34.28
51245;BME280;37840;47.562;18.738;2023-02-14T07:40:28;101424.13;;;18.41;34.05
51245;BME280;37840;47.562;18.738;2023-02-14T07:42:56;101422.16;;;18.43;33.92
51245;BME280;37840;47.562;18.738;2023-02-14T07:45:22;101424.31;;;18.85;33.30
51245;BME280;37840;47.562;18.738;2023-02-14T07:47:51;101429.00;;;19.05;33.09
51245;BME280;37840;47.562;18.738;2023-02-14T07:50:18;101421.00;;;19.38;32.38
51245;BME280;37840;47.562;18.738;2023-02-14T07:52:45;101425.34;;;19.61;32.20
51245;BME280;37840;47.562;18.738;2023-02-14T07:55:11;101422.72;;;19.93;31.28
51245;BME280;37840;47.562;18.738;2023-02-14T07:57:37;101429.66;;;19.64;31.71
51245;BME280;37840;47.562;18.738;2023-02-14T08:00:05;101429.97;;;19.27;32.28
51245;BME280;37840;47.562;18.738;2023-02-14T08:02:31;101428.97;;;18.83;32.69
51245;BME280;37840;47.562;18.738;2023-02-14T08:04:57;101435.41;;;17.87;34.44
51245;BME280;37840;47.562;18.738;2023-02-14T08:07:22;101428.28;;;17.25;35.72
51245;BME280;37840;47.562;18.738;2023-02-14T08:09:48;101441.41;;;16.00;37.87
51245;BME280;37840;47.562;18.738;2023-02-14T08:12:14;101443.22;;;15.02;40.26
51245;BME280;37840;47.562;18.738;2023-02-14T08:14:59;101441.31;;;13.84;43.16
51245;BME280;37840;47.562;18.738;2023-02-14T08:24:37;101438.22;;;11.92;49.09
51245;BME280;37840;47.562;18.738;2023-02-14T08:27:03;101437.84;;;11.81;49.17
51245;BME280;37840;47.562;18.738;2023-02-14T08:29:29;101435.06;;;11.65;49.94
51245;BME280;37840;47.562;18.738;2023-02-14T08:31:55;101423.34;;;11.50;50.62
51245;BME280;37840;47.562;18.738;2023-02-14T08:34:24;101432.41;;;11.08;51.11
51245;BME280;37840;47.562;18.738;2023-02-14T08:36:50;101437.78;;;10.88;51.83
51245;BME280;37840;47.562;18.738;2023-02-14T08:39:16;101432.28;;;10.72;53.13
51245;BME280;37840;47.562;18.738;2023-02-14T08:41:42;101437.41;;;10.56;53.37
51245;BME280;37840;47.562;18.738;2023-02-14T08:44:08;101435.56;;;10.58;53.70
51245;BME280;37840;47.562;18.738;2023-02-14T08:46:34;101444.00;;;10.68;53.54
51245;BME280;37840;47.562;18.738;2023-02-14T08:49:00;101439.00;;;10.60;53.76
51245;BME280;37840;47.562;18.738;2023-02-14T08:51:26;101432.44;;;10.48;53.45
51245;BME280;37840;47.562;18.738;2023-02-14T08:53:52;101434.41;;;10.23;53.87
51245;BME280;37840;47.562;18.738;2023-02-14T08:56:19;101442.69;;;10.15;54.76
51245;BME280;37840;47.562;18.738;2023-02-14T08:58:50;101436.72;;;10.10;55.16
51245;BME280;37840;47.562;18.738;2023-02-14T09:01:17;101438.97;;;10.19;55.03
51245;BME280;37840;47.562;18.738;2023-02-14T09:03:43;101435.28;;;10.23;54.94
51245;BME280;37840;47.562;18.738;2023-02-14T09:06:11;101432.78;;;10.40;54.63
51245;BME280;37840;47.562;18.738;2023-02-14T09:08:40;101426.78;;;10.56;54.65
51245;BME280;37840;47.562;18.738;2023-02-14T09:11:14;101433.78;;;10.58;54.22
51245;BME280;37840;47.562;18.738;2023-02-14T09:13:41;101433.78;;;10.58;54.32
51245;BME280;37840;47.562;18.738;2023-02-14T09:16:09;101435.28;;;10.64;53.25
51245;BME280;37840;47.562;18.738;2023-02-14T09:18:35;101436.56;;;10.76;53.29
51245;BME280;37840;47.562;18.738;2023-02-14T09:21:06;101434.16;;;10.70;53.79
51245;BME280;37840;47.562;18.738;2023-02-14T09:23:32;101442.41;;;10.84;52.51
51245;BME280;37840;47.562;18.738;2023-02-14T09:26:00;101441.38;;;10.87;52.23
51245;BME280;37840;47.562;18.738;2023-02-14T09:28:27;101440.09;;;10.95;51.51
51245;BME280;37840;47.562;18.738;2023-02-14T09:30:53;101439.09;;;10.98;51.83
51245;BME280;37840;47.562;18.738;2023-02-14T09:33:19;101441.03;;;10.94;51.77
51245;BME280;37840;47.562;18.738;2023-02-14T09:35:45;101441.19;;;10.91;51.75
51245;BME280;37840;47.562;18.738;2023-02-14T09:38:29;101443.19;;;10.86;51.74
51245;BME280;37840;47.562;18.738;2023-02-14T09:40:55;101456.97;;;10.75;52.74
51245;BME280;37840;47.562;18.738;2023-02-14T09:43:34;101447.50;;;10.89;52.04
51245;BME280;37840;47.562;18.738;2023-02-14T09:46:05;101451.97;;;10.88;52.67
51245;BME280;37840;47.562;18.738;2023-02-14T09:48:41;101451.59;;;10.96;51.95
51245;BME280;37840;47.562;18.738;2023-02-14T09:51:15;101453.06;;;11.03;51.50
51245;BME280;37840;47.562;18.738;2023-02-14T09:53:51;101460.34;;;10.99;52.00
51245;BME280;37840;47.562;18.738;2023-02-14T09:56:42;101454.69;;;10.87;52.08
51245;BME280;37840;47.562;18.738;2023-02-14T09:59:22;101452.78;;;10.90;52.66
51245;BME280;37840;47.562;18.738;2023-02-14T10:01:52;101454.00;;;11.02;51.69
51245;BME280;37840;47.562;18.738;2023-02-14T10:04:34;101451.13;;;11.07;51.54
51245;BME280;37840;47.562;18.738;2023-02-14T10:07:13;101452.44;;;11.17;51.35
51245;BME280;37840;47.562;18.738;2023-02-14T10:15:40;101449.41;;;11.06;50.39
51245;BME280;37840;47.562;18.738;2023-02-14T10:18:16;101453.16;;;10.81;50.58
51245;BME280;37840;47.562;18.738;2023-02-14T10:23:23;101438.38;;;10.55;52.25
51245;BME280;37840;47.562;18.738;2023-02-14T10:29:06;101440.41;;;10.69;50.83
51245;BME280;37840;47.562;18.738;2023-02-14T10:31:27;101443.53;;;10.58;50.73
51245;BME280;37840;47.562;18.738;2023-02-14T10:34:18;101446.81;;;10.44;51.46
51245;BME280;37840;47.562;18.738;2023-02-14T10:52:57;101442.50;;;9.55;52.87
51245;BME280;37840;47.562;18.738;2023-02-14T10:54:53;101439.47;;;9.64;53.12
51245;BME280;37840;47.562;18.738;2023-02-14T10:57:28;101435.75;;;9.90;53.68
51245;BME280;37840;47.562;18.738;2023-02-14T11:00:37;101434.63;;;10.18;53.21
51245;BME280;37840;47.562;18.738;2023-02-14T11:03:05;101435.44;;;10.40;51.47
51245;BME280;37840;47.562;18.738;2023-02-14T11:05:35;101428.34;;;10.19;51.06
51245;BME280;37840;47.562;18.738;2023-02-14T11:08:05;101432.31;;;9.88;51.42
51245;BME280;37840;47.562;18.738;2023-02-14T11:10:38;101432.59;;;9.80;52.33
51245;BME280;37840;47.562;18.738;2023-02-14T11:13:27;101422.63;;;9.86;52.55
51245;BME280;37840;47.562;18.738;2023-02-14T11:15:58;101430.59;;;10.08;51.91
51245;BME280;37840;47.562;18.738;2023-02-14T11:18:26;101430.75;;;10.25;51.73
51245;BME280;37840;47.562;18.738;2023-02-14T11:23:38;101423.09;;;10.39;50.84
51245;BME280;37840;47.562;18.738;2023-02-14T11:26:30;101425.50;;;10.24;50.49
51245;BME280;37840;47.562;18.738;2023-02-14T11:29:09;101421.50;;;10.13;50.90
51245;BME280;37840;47.562;18.738;2023-02-14T11:31:38;101413.47;;;10.15;50.72
51245;BME280;37840;47.562;18.738;2023-02-14T11:34:21;101417.28;;;10.30;51.17
51245;BME280;37840;47.562;18.738;2023-02-14T11:36:48;101419.84;;;10.33;50.49
51245;BME280;37840;47.562;18.738;2023-02-14T11:41:54;101410.41;;;10.24;49.71
51245;BME280;37840;47.562;18.738;2023-02-14T11:44:23;101416.31;;;10.10;50.25
51245;BME280;37840;47.562;18.738;2023-02-14T11:46:52;101413.72;;;10.09;50.50
51245;BME280;37840;47.562;18.738;2023-02-14T11:49:30;101411.19;;;10.06;51.08
51245;BME280;37840;47.562;18.738;2023-02-14T11:51:59;101412.56;;;9.94;51.14
51245;BME280;37840;47.562;18.738;2023-02-14T11:54:39;101409.44;;;9.84;51.22
51245;BME280;37840;47.562;18.738;2023-02-14T11:59:54;101406.94;;;10.02;52.10
51245;BME280;37840;47.562;18.738;2023-02-14T12:02:42;101407.28;;;10.14;51.48
51245;BME280;37840;47.562;18.738;2023-02-14T12:21:50;101401.59;;;10.44;49.96
51245;BME280;37840;47.562;18.738;2023-02-14T14:06:23;101360.72;;;9.84;51.25
51245;BME280;37840;47.562;18.738;2023-02-14T14:25:05;101358.50;;;9.52;51.66
51245;BME280;37840;47.562;18.738;2023-02-14T14:27:53;101361.41;;;9.46;51.52
51245;BME280;37840;47.562;18.738;2023-02-14T14:30:26;101358.59;;;9.49;51.52
51245;BME280;37840;47.562;18.738;2023-02-14T15:14:46;101350.59;;;8.83;53.72
51245;BME280;37840;47.562;18.738;2023-02-14T15:17:18;101349.09;;;8.76;53.73
51245;BME280;37840;47.562;18.738;2023-02-14T15:33:32;101345.03;;;8.67;53.87
51245;BME280;37840;47.562;18.738;2023-02-14T15:36:05;101348.94;;;8.57;54.06
51245;BME280;37840;47.562;18.738;2023-02-14T15:46:11;101352.03;;;8.45;54.28
51245;BME280;37840;47.562;18.738;2023-02-14T15:48:39;101364.69;;;8.35;54.51
51245;BME280;37840;47.562;18.738;2023-02-14T15:51:20;101364.88;;;8.30;54.59
51245;BME280;37840;47.562;18.738;2023-02-14T15:56:23;101364.41;;;8.19;55.05
51245;BME280;37840;47.562;18.738;2023-02-14T15:58:58;101370.16;;;8.05;55.52
51245;BME280;37840;47.562;18.738;2023-02-14T16:01:25;101361.72;;;7.94;55.85
51245;BME280;37840;47.562;18.738;2023-02-14T16:03:55;101372.72;;;7.82;56.14
51245;BME280;37840;47.562;18.738;2023-02-14T16:08:59;101371.56;;;7.64;56.45
51245;BME280;37840;47.562;18.738;2023-02-14T16:11:35;101367.59;;;7.50;56.58
51245;BME280;37840;47.562;18.738;2023-02-14T16:17:10;101375.16;;;7.34;57.27
51245;BME280;37840;47.562;18.738;2023-02-14T16:19:45;101378.81;;;7.30;57.35
51245;BME280;37840;47.562;18.738;2023-02-14T16:22:26;101378.12;;;7.24;57.42
51245;BME280;37840;47.562;18.738;2023-02-14T16:24:57;101374.59;;;7.25;57.38
51245;BME280;37840;47.562;18.738;2023-02-14T16:27:23;101372.13;;;7.19;57.59
51245;BME280;37840;47.562;18.738;2023-02-14T16:29:49;101375.81;;;7.13;57.88
51245;BME280;37840;47.562;18.738;2023-02-14T16:32:22;101384.03;;;7.04;58.31
51245;BME280;37840;47.562;18.738;2023-02-14T16:34:49;101391.09;;;7.03;58.44
51245;BME280;37840;47.562;18.738;2023-02-14T16:37:33;101385.94;;;6.99;58.63
51245;BME280;37840;47.562;18.738;2023-02-14T16:40:00;101387.88;;;6.93;58.80
51245;BME280;37840;47.562;18.738;2023-02-14T16:42:26;101395.97;;;6.87;59.00
51245;BME280;37840;47.562;18.738;2023-02-14T16:44:52;101394.38;;;6.82;59.24
51245;BME280;37840;47.562;18.738;2023-02-14T16:47:19;101395.28;;;6.81;59.42
51245;BME280;37840;47.562;18.738;2023-02-14T16:49:45;101399.84;;;6.76;59.65
51245;BME280;37840;47.562;18.738;2023-02-14T16:52:14;101394.66;;;6.72;59.72
51245;BME280;37840;47.562;18.738;2023-02-14T16:54:41;101399.22;;;6.67;59.86
51245;BME280;37840;47.562;18.738;2023-02-14T16:57:15;101394.09;;;6.61;60.04
51245;BME280;37840;47.562;18.738;2023-02-14T16:59:43;101398.75;;;6.51;60.44
51245;BME280;37840;47.562;18.738;2023-02-14T17:02:09;101407.69;;;6.47;60.53
51245;BME280;37840;47.562;18.738;2023-02-14T17:04:36;101403.41;;;6.42;60.59
51245;BME280;37840;47.562;18.738;2023-02-14T17:07:02;101408.62;;;6.45;60.51
51245;BME280;37840;47.562;18.738;2023-02-14T17:09:34;101408.69;;;6.42;60.54
51245;BME280;37840;47.562;18.738;2023-02-14T17:12:05;101408.78;;;6.39;60.59
51245;BME280;37840;47.562;18.738;2023-02-14T17:14:36;101409.75;;;6.36;60.67
51245;BME280;37840;47.562;18.738;2023-02-14T17:17:03;101411.69;;;6.29;60.84
51245;BME280;37840;47.562;18.738;2023-02-14T17:19:30;101417.09;;;6.25;60.95
51245;BME280;37840;47.562;18.738;2023-02-14T17:21:57;101418.03;;;6.22;60.98
51245;BME280;37840;47.562;18.738;2023-02-14T17:24:23;101418.09;;;6.21;60.93
51245;BME280;37840;47.562;18.738;2023-02-14T17:26:49;101416.44;;;6.17;60.98
51245;BME280;37840;47.562;18.738;2023-02-14T17:29:15;101419.19;;;6.12;61.12
51245;BME280;37840;47.562;18.738;2023-02-14T17:31:41;101417.53;;;6.08;61.21
51245;BME280;37840;47.562;18.738;2023-02-14T17:34:08;101426.37;;;6.05;61.28
51245;BME280;37840;47.562;18.738;2023-02-14T17:36:36;101419.41;;;6.03;61.39
51245;BME280;37840;47.562;18.738;2023-02-14T17:39:03;101423.91;;;5.99;61.43
51245;BME280;37840;47.562;18.738;2023-02-14T17:41:30;101420.47;;;5.94;61.54
51245;BME280;37840;47.562;18.738;2023-02-14T17:43:56;101424.09;;;5.90;61.65
51245;BME280;37840;47.562;18.738;2023-02-14T17:46:29;101426.19;;;5.77;62.00
51245;BME280;37840;47.562;18.738;2023-02-14T17:48:56;101425.44;;;5.72;62.06
51245;BME280;37840;47.562;18.738;2023-02-14T17:51:23;101422.94;;;5.66;62.10
51245;BME280;37840;47.562;18.738;2023-02-14T17:53:49;101426.59;;;5.59;62.15
51245;BME280;37840;47.562;18.738;2023-02-14T17:56:21;101424.06;;;5.54;62.32
51245;BME280;37840;47.562;18.738;2023-02-14T17:58:49;101422.38;;;5.51;62.50
51245;BME280;37840;47.562;18.738;2023-02-14T18:01:21;101423.37;;;5.46;62.12
51245;BME280;37840;47.562;18.738;2023-02-14T18:03:47;101419.31;;;5.31;61.45
51245;BME280;37840;47.562;18.738;2023-02-14T18:06:13;101419.78;;;5.11;61.69
51245;BME280;37840;47.562;18.738;2023-02-14T18:08:44;101417.59;;;4.89;61.45
51245;BME280;37840;47.562;18.738;2023-02-14T18:11:11;101417.97;;;4.71;62.02
51245;BME280;37840;47.562;18.738;2023-02-14T18:13:38;101419.19;;;4.53;62.61
51245;BME280;37840;47.562;18.738;2023-02-14T18:16:12;101419.47;;;4.38;63.16
51245;BME280;37840;47.562;18.738;2023-02-14T18:18:38;101427.53;;;4.30;63.42
51245;BME280;37840;47.562;18.738;2023-02-14T18:21:06;101427.66;;;4.22;63.50
51245;BME280;37840;47.562;18.738;2023-02-14T18:23:33;101426.06;;;4.14;63.87
51245;BME280;37840;47.562;18.738;2023-02-14T18:26:02;101425.19;;;4.15;64.54
51245;BME280;37840;47.562;18.738;2023-02-14T18:28:29;101422.50;;;4.16;64.67
51245;BME280;37840;47.562;18.738;2023-02-14T18:31:04;101420.69;;;4.18;64.64
51245;BME280;37840;47.562;18.738;2023-02-14T18:33:30;101415.59;;;4.11;64.66
51245;BME280;37840;47.562;18.738;2023-02-14T18:35:56;101413.88;;;4.08;64.51
51245;BME280;37840;47.562;18.738;2023-02-14T18:38:25;101413.91;;;4.05;64.65
51245;BME280;37840;47.562;18.738;2023-02-14T18:40:51;101423.69;;;4.00;64.60
51245;BME280;37840;47.562;18.738;2023-02-14T18:43:17;101414.13;;;3.93;65.03
51245;BME280;37840;47.562;18.738;2023-02-14T18:45:43;101421.19;;;3.91;65.35